createdAt,value
2023-04-30T00:01:10.780Z,102091.94
2023-04-30T00:03:37.865Z,102087.47
2023-04-30T00:06:04.997Z,102082.16
2023-04-30T00:08:32.141Z,102075.97
2023-04-30T00:10:59.161Z,102088.19
2023-04-30T00:13:26.635Z,102083.72
2023-04-30T00:15:53.667Z,102092.47
2023-04-30T00:18:20.976Z,102089.81
2023-04-30T00:20:47.967Z,102094.09
2023-04-30T00:23:15.071Z,102092.25
2023-04-30T00:25:42.017Z,102085.13
2023-04-30T00:28:08.995Z,102093.00
2023-04-30T00:30:36.082Z,102085.94
2023-04-30T00:33:03.170Z,102099.06
2023-04-30T00:35:30.191Z,102091.03
2023-04-30T00:37:57.333Z,102090.09
2023-04-30T00:40:24.367Z,102096.09
2023-04-30T00:42:53.533Z,102096.03
2023-04-30T00:45:22.225Z,102097.66
2023-04-30T00:47:49.641Z,102099.31
2023-04-30T00:50:16.748Z,102100.16
2023-04-30T00:52:44.856Z,102089.56
2023-04-30T00:55:13.201Z,102085.97
2023-04-30T00:57:43.609Z,102092.00
2023-04-30T01:00:11.721Z,102100.69
2023-04-30T01:02:39.041Z,102092.75
2023-04-30T01:05:07.641Z,102090.88
2023-04-30T01:07:41.578Z,102087.34
2023-04-30T01:10:09.540Z,102092.53
2023-04-30T01:13:34.978Z,102087.13
2023-04-30T01:16:25.821Z,102079.94
2023-04-30T01:19:02.102Z,102093.88
2023-04-30T01:21:33.268Z,102088.47
2023-04-30T01:24:35.669Z,102088.41
2023-04-30T01:27:55.331Z,102092.66
2023-04-30T01:30:23.959Z,102096.09
2023-04-30T01:32:54.194Z,102096.94
2023-04-30T01:35:28.219Z,102088.91
2023-04-30T01:38:18.136Z,102087.06
2023-04-30T01:41:07.229Z,102086.97
2023-04-30T01:43:37.669Z,102081.66
2023-04-30T01:46:16.518Z,102084.19
2023-04-30T01:48:50.376Z,102081.47
2023-04-30T01:51:39.565Z,102090.19
2023-04-30T01:54:27.182Z,102092.78
2023-04-30T01:57:06.149Z,102095.34
2023-04-30T01:59:38.223Z,102087.41
2023-04-30T02:02:07.191Z,102082.97
2023-04-30T02:04:34.450Z,102096.00
2023-04-30T02:07:01.897Z,102091.63
2023-04-30T02:09:28.925Z,102095.97
2023-04-30T02:11:57.917Z,102099.38
2023-04-30T02:14:26.061Z,102097.56
2023-04-30T02:16:55.472Z,102104.50
2023-04-30T02:19:25.850Z,102103.47
2023-04-30T02:21:52.966Z,102099.09
2023-04-30T02:24:20.508Z,102106.94
2023-04-30T02:26:47.541Z,102104.28
2023-04-30T02:29:14.599Z,102103.34
2023-04-30T02:31:41.785Z,102109.44
2023-04-30T02:34:08.828Z,102103.25
2023-04-30T02:36:36.736Z,102103.16
2023-04-30T02:39:03.951Z,102103.97
2023-04-30T02:41:31.109Z,102101.25
2023-04-30T02:43:58.203Z,102105.59
2023-04-30T02:46:25.463Z,102102.06
2023-04-30T02:48:52.604Z,102105.47
2023-04-30T02:51:19.635Z,102105.41
2023-04-30T02:53:46.683Z,102103.59
2023-04-30T02:56:13.636Z,102104.44
2023-04-30T02:58:41.076Z,102098.28
2023-04-30T03:01:08.176Z,102106.13
2023-04-30T03:03:35.304Z,102106.09
2023-04-30T03:06:03.059Z,102096.38
2023-04-30T03:08:30.136Z,102092.84
2023-04-30T03:10:57.250Z,102098.94
2023-04-30T03:13:27.282Z,102103.25
2023-04-30T03:16:02.231Z,102101.38
2023-04-30T03:18:29.796Z,102100.34
2023-04-30T03:20:57.633Z,102100.19
2023-04-30T03:23:27.543Z,102091.22
2023-04-30T03:25:54.631Z,102091.19
2023-04-30T03:28:21.974Z,102090.25
2023-04-30T03:30:49.034Z,102094.56
2023-04-30T03:33:16.092Z,102080.47
2023-04-30T03:35:43.186Z,102078.56
2023-04-30T03:38:10.317Z,102083.81
2023-04-30T03:40:37.346Z,102084.59
2023-04-30T03:43:05.630Z,102089.81
2023-04-30T03:45:32.691Z,102089.75
2023-04-30T03:47:59.788Z,102086.22
2023-04-30T03:50:26.873Z,102094.06
2023-04-30T03:52:53.899Z,102096.56
2023-04-30T03:55:21.054Z,102090.38
2023-04-30T03:57:48.205Z,102086.84
2023-04-30T04:00:15.871Z,102089.41
2023-04-30T04:02:43.285Z,102087.69
2023-04-30T04:05:10.731Z,102096.34
2023-04-30T04:07:38.021Z,102098.03
2023-04-30T04:10:07.314Z,102098.03
2023-04-30T04:12:34.288Z,102108.50
2023-04-30T04:15:01.451Z,102104.06
2023-04-30T04:17:28.908Z,102104.97
2023-04-30T04:19:56.364Z,102109.34
2023-04-30T04:22:23.969Z,102116.31
2023-04-30T04:24:51.576Z,102115.44
2023-04-30T04:27:19.535Z,102117.28
2023-04-30T04:29:47.199Z,102117.38
2023-04-30T04:32:14.639Z,102118.31
2023-04-30T04:34:43.253Z,102124.59
2023-04-30T04:37:10.372Z,102118.72
2023-04-30T04:39:37.529Z,102127.59
2023-04-30T04:42:05.312Z,102118.88
2023-04-30T04:44:32.569Z,102126.06
2023-04-30T04:46:59.808Z,102130.50
2023-04-30T04:49:27.380Z,102135.03
2023-04-30T04:51:54.421Z,102138.69
2023-04-30T04:54:21.558Z,102131.00
2023-04-30T04:56:48.634Z,102137.28
2023-04-30T04:59:18.573Z,102138.25
2023-04-30T05:01:45.657Z,102136.69
2023-04-30T05:04:14.120Z,102125.41
2023-04-30T05:06:42.841Z,102134.22
2023-04-30T05:09:10.151Z,102129.13
2023-04-30T05:11:37.677Z,102131.88
2023-04-30T05:14:04.831Z,102133.84
2023-04-30T05:16:31.845Z,102134.09
2023-04-30T05:18:59.032Z,102129.88
2023-04-30T05:21:29.811Z,102124.91
2023-04-30T05:23:56.953Z,102128.63
2023-04-30T05:26:27.061Z,102123.59
2023-04-30T05:28:54.211Z,102128.06
2023-04-30T05:31:21.551Z,102128.22
2023-04-30T05:33:49.002Z,102131.81
2023-04-30T05:36:16.140Z,102135.66
2023-04-30T05:38:43.205Z,102138.34
2023-04-30T05:41:13.195Z,102135.88
2023-04-30T05:43:40.264Z,102135.28
2023-04-30T05:46:07.286Z,102138.13
2023-04-30T05:48:34.456Z,102135.63
2023-04-30T05:51:01.701Z,102134.88
2023-04-30T05:53:28.698Z,102138.69
2023-04-30T05:55:55.878Z,102138.94
2023-04-30T05:58:25.621Z,102142.56
2023-04-30T06:00:53.124Z,102137.50
2023-04-30T06:03:20.396Z,102134.97
2023-04-30T06:05:47.820Z,102129.81
2023-04-30T06:08:14.938Z,102130.91
2023-04-30T06:10:43.110Z,102131.19
2023-04-30T06:13:10.147Z,102135.75
2023-04-30T06:15:37.701Z,102133.25
2023-04-30T06:18:04.739Z,102126.44
2023-04-30T06:20:31.890Z,102126.59
2023-04-30T06:23:00.116Z,102125.91
2023-04-30T06:25:27.348Z,102127.84
2023-04-30T06:27:54.431Z,102131.53
2023-04-30T06:30:21.720Z,102122.91
2023-04-30T06:32:48.877Z,102132.75
2023-04-30T06:35:16.094Z,102133.84
2023-04-30T06:37:46.171Z,102138.47
2023-04-30T06:40:13.261Z,102129.88
2023-04-30T06:42:40.686Z,102132.69
2023-04-30T06:45:12.388Z,102130.31
2023-04-30T06:47:41.831Z,102131.38
2023-04-30T06:50:09.444Z,102133.31
2023-04-30T06:52:36.416Z,102130.03
2023-04-30T06:55:03.670Z,102132.88
2023-04-30T06:57:31.221Z,102137.41
2023-04-30T06:59:58.468Z,102137.59
2023-04-30T07:02:26.039Z,102144.78
2023-04-30T07:04:53.223Z,102131.69
2023-04-30T07:07:20.408Z,102133.53
2023-04-30T07:09:48.516Z,102123.09
2023-04-30T07:12:17.011Z,102126.75
2023-04-30T07:14:44.851Z,102128.63
2023-04-30T07:17:11.884Z,102130.59
2023-04-30T07:19:38.864Z,102130.69
2023-04-30T07:22:05.876Z,102125.53
2023-04-30T07:24:32.941Z,102125.59
2023-04-30T07:27:02.989Z,102134.44
2023-04-30T07:29:30.694Z,102116.00
2023-04-30T07:31:58.573Z,102124.91
2023-04-30T07:34:25.770Z,102126.78
2023-04-30T07:36:52.895Z,102128.63
2023-04-30T07:39:19.901Z,102122.53
2023-04-30T07:41:46.966Z,102120.84
2023-04-30T07:44:13.955Z,102128.91
2023-04-30T07:46:41.197Z,102126.31
2023-04-30T07:49:08.371Z,102124.63
2023-04-30T07:51:35.941Z,102130.88
2023-04-30T07:54:04.045Z,102129.19
2023-04-30T07:56:31.808Z,102129.22
2023-04-30T07:58:58.894Z,102131.03
2023-04-30T08:01:26.024Z,102126.66
2023-04-30T08:03:53.265Z,102126.75
2023-04-30T08:06:20.403Z,102125.00
2023-04-30T08:08:48.194Z,102135.69
2023-04-30T08:11:16.315Z,102134.84
2023-04-30T08:13:43.525Z,102136.63
2023-04-30T08:16:10.845Z,102138.44
2023-04-30T08:18:39.160Z,102139.31
2023-04-30T08:21:06.758Z,102135.81
2023-04-30T08:23:33.760Z,102142.03
2023-04-30T08:26:00.853Z,102141.16
2023-04-30T08:28:27.835Z,102143.84
2023-04-30T08:30:55.438Z,102137.72
2023-04-30T08:33:22.642Z,102139.50
2023-04-30T08:35:49.690Z,102136.84
2023-04-30T08:38:16.881Z,102137.75
2023-04-30T08:40:56.845Z,102135.09
2023-04-30T08:43:24.299Z,102129.81
2023-04-30T08:45:52.327Z,102128.03
2023-04-30T08:48:21.232Z,102129.78
2023-04-30T08:50:49.043Z,102128.00
2023-04-30T08:53:17.754Z,102130.69
2023-04-30T08:55:45.212Z,102131.53
2023-04-30T08:58:12.243Z,102137.75
2023-04-30T09:00:42.153Z,102127.97
2023-04-30T09:03:09.666Z,102130.66
2023-04-30T09:05:40.662Z,102127.13
2023-04-30T09:08:09.031Z,102131.53
2023-04-30T09:10:36.598Z,102127.09
2023-04-30T09:13:12.083Z,102127.94
2023-04-30T09:15:44.624Z,102119.09
2023-04-30T09:18:18.870Z,102115.53
2023-04-30T09:21:05.627Z,102118.13
2023-04-30T09:23:32.655Z,102124.28
2023-04-30T09:26:00.807Z,102118.06
2023-04-30T09:28:29.005Z,102125.97
2023-04-30T09:30:59.541Z,102128.59
2023-04-30T09:33:26.683Z,102117.03
2023-04-30T09:35:53.911Z,102122.34
2023-04-30T09:38:33.501Z,102122.28
2023-04-30T09:41:02.210Z,102122.25
2023-04-30T09:43:30.939Z,102125.75
2023-04-30T09:46:01.116Z,102124.78
2023-04-30T09:48:28.567Z,102119.47
2023-04-30T09:50:55.758Z,102115.91
2023-04-30T09:53:23.862Z,102112.38
2023-04-30T09:55:51.901Z,102118.59
2023-04-30T09:58:20.117Z,102112.38
2023-04-30T10:00:50.473Z,102112.47
2023-04-30T10:03:17.660Z,102120.47
2023-04-30T10:05:48.890Z,102112.44
2023-04-30T10:08:41.751Z,102110.59
2023-04-30T10:11:16.649Z,102106.09
2023-04-30T10:13:53.805Z,102111.34
2023-04-30T10:16:34.533Z,102106.88
2023-04-30T10:19:11.101Z,102105.94
2023-04-30T10:21:42.548Z,102101.47
2023-04-30T10:24:15.021Z,102106.75
2023-04-30T10:26:44.081Z,102101.38
2023-04-30T10:29:13.130Z,102096.03
2023-04-30T10:31:43.556Z,102087.97
2023-04-30T10:34:42.366Z,102087.00
2023-04-30T10:37:34.908Z,102092.22
2023-04-30T10:40:04.973Z,102078.06
2023-04-30T10:42:35.793Z,102080.78
2023-04-30T10:45:03.874Z,102088.16
2023-04-30T10:47:31.839Z,102076.75
2023-04-30T10:50:09.643Z,102074.91
2023-04-30T10:52:38.723Z,102074.84
2023-04-30T10:55:08.482Z,102073.13
2023-04-30T10:57:46.729Z,102062.28
2023-04-30T11:00:14.647Z,102062.22
2023-04-30T11:02:48.861Z,102060.28
2023-04-30T11:05:18.533Z,102067.31
2023-04-30T11:07:57.124Z,102059.13
2023-04-30T11:10:27.448Z,102058.84
2023-04-30T11:12:58.037Z,102047.97
2023-04-30T11:15:31.749Z,102043.25
2023-04-30T11:17:59.619Z,102041.31
2023-04-30T11:20:27.871Z,102046.94
2023-04-30T11:23:19.251Z,102045.47
2023-04-30T11:25:57.805Z,102039.16
2023-04-30T11:28:27.358Z,102028.31
2023-04-30T11:30:59.384Z,102026.22
2023-04-30T11:33:28.958Z,102024.94
2023-04-30T11:35:58.273Z,102024.63
2023-04-30T11:38:36.183Z,102016.53
2023-04-30T11:41:05.026Z,102015.53
2023-04-30T11:43:35.049Z,102025.25
2023-04-30T11:46:08.313Z,102016.03
2023-04-30T11:48:40.967Z,102013.97
2023-04-30T11:51:22.102Z,102008.91
2023-04-30T11:53:51.797Z,102007.72
2023-04-30T11:56:24.540Z,102006.63
2023-04-30T11:58:57.818Z,102005.44
2023-04-30T12:01:28.587Z,102001.28
2023-04-30T12:03:57.558Z,102000.91
2023-04-30T12:06:29.007Z,101998.09
2023-04-30T12:09:23.677Z,101991.16
2023-04-30T12:11:50.814Z,101992.06
2023-04-30T12:14:17.857Z,101995.72
2023-04-30T12:16:51.878Z,101992.59
2023-04-30T12:19:22.301Z,101984.16
2023-04-30T12:21:50.204Z,101983.72
2023-04-30T12:24:19.504Z,101988.69
2023-04-30T12:26:48.023Z,101983.69
2023-04-30T12:29:19.447Z,101983.84
2023-04-30T12:31:50.894Z,101973.53
2023-04-30T12:34:18.917Z,101968.13
2023-04-30T12:36:45.996Z,101968.97
2023-04-30T12:39:18.720Z,101967.53
2023-04-30T12:41:49.014Z,101964.63
2023-04-30T12:44:28.042Z,101968.78
2023-04-30T12:47:00.696Z,101956.22
2023-04-30T12:49:30.590Z,101955.75
2023-04-30T12:52:09.040Z,101956.03
2023-04-30T12:54:37.385Z,101950.31
2023-04-30T12:57:12.787Z,101944.63
2023-04-30T12:59:55.493Z,101953.38
2023-04-30T13:02:31.961Z,101945.91
2023-04-30T13:04:59.375Z,101944.53
2023-04-30T13:07:26.689Z,101940.47
2023-04-30T13:09:53.977Z,101935.81
2023-04-30T13:12:21.289Z,101934.56
2023-04-30T13:14:48.410Z,101927.97
2023-04-30T13:17:15.472Z,101919.00
2023-04-30T13:19:43.644Z,101921.41
2023-04-30T13:22:10.812Z,101925.00
2023-04-30T13:24:37.854Z,101922.03
2023-04-30T13:27:05.151Z,101921.06
2023-04-30T13:29:32.834Z,101921.53
2023-04-30T13:31:59.857Z,101904.84
2023-04-30T13:34:26.899Z,101917.53
2023-04-30T13:36:54.707Z,101916.81
2023-04-30T13:39:24.871Z,101910.91
2023-04-30T13:41:51.863Z,101904.41
2023-04-30T13:44:19.272Z,101911.78
2023-04-30T13:46:46.535Z,101899.50
2023-04-30T13:49:13.678Z,101901.56
2023-04-30T13:51:40.798Z,101899.34
2023-04-30T13:54:07.793Z,101885.53
2023-04-30T13:56:34.879Z,101890.06
2023-04-30T13:59:03.050Z,101890.78
2023-04-30T14:01:31.273Z,101890.78
2023-04-30T14:03:58.878Z,101879.06
2023-04-30T14:06:25.971Z,101887.69
2023-04-30T14:08:53.130Z,101881.97
2023-04-30T14:11:20.934Z,101876.63
2023-04-30T14:13:47.959Z,101878.41
2023-04-30T14:16:15.189Z,101880.75
2023-04-30T14:18:43.920Z,101869.66
2023-04-30T14:21:11.625Z,101868.09
2023-04-30T14:23:41.760Z,101871.16
2023-04-30T14:26:09.284Z,101876.00
2023-04-30T14:28:36.351Z,101876.66
2023-04-30T14:31:03.879Z,101865.94
2023-04-30T14:33:32.183Z,101875.41
2023-04-30T14:36:02.951Z,101864.13
2023-04-30T14:38:29.949Z,101867.75
2023-04-30T14:40:56.976Z,101863.88
2023-04-30T14:43:24.045Z,101863.47
2023-04-30T14:45:52.284Z,101856.91
2023-04-30T14:48:19.453Z,101856.50
2023-04-30T14:50:46.600Z,101845.91
2023-04-30T14:53:13.980Z,101844.88
2023-04-30T14:55:41.621Z,101846.31
2023-04-30T14:58:08.628Z,101836.09
2023-04-30T15:00:35.596Z,101847.69
2023-04-30T15:03:02.627Z,101840.56
2023-04-30T15:05:30.357Z,101835.31
2023-04-30T15:07:57.290Z,101826.78
2023-04-30T15:10:24.308Z,101831.13
2023-04-30T15:12:51.551Z,101824.75
2023-04-30T15:15:19.137Z,101821.53
2023-04-30T15:17:46.329Z,101819.84
2023-04-30T15:20:13.914Z,101819.69
2023-04-30T15:22:41.042Z,101814.22
2023-04-30T15:25:08.933Z,101821.09
2023-04-30T15:27:36.864Z,101818.84
2023-04-30T15:30:04.470Z,101816.47
2023-04-30T15:32:31.570Z,101813.91
2023-04-30T15:34:58.544Z,101827.75
2023-04-30T15:37:25.696Z,101814.63
2023-04-30T15:39:53.241Z,101809.25
2023-04-30T15:42:21.130Z,101810.16
2023-04-30T15:44:48.169Z,101800.84
2023-04-30T15:47:15.241Z,101801.22
2023-04-30T15:49:43.576Z,101796.59
2023-04-30T15:52:10.660Z,101806.97
2023-04-30T15:54:38.576Z,101799.81
2023-04-30T15:57:05.818Z,101791.50
2023-04-30T15:59:32.778Z,101791.75
2023-04-30T16:02:00.435Z,101791.72
2023-04-30T16:04:27.959Z,101782.66
2023-04-30T16:06:57.175Z,101781.75
2023-04-30T16:11:52.114Z,101782.78
2023-04-30T16:14:19.592Z,101777.69
2023-04-30T16:16:46.740Z,101781.75
2023-04-30T16:19:17.365Z,101779.22
2023-04-30T16:21:44.820Z,101775.22
2023-04-30T16:24:13.052Z,101772.13
2023-04-30T16:26:40.098Z,101778.13
2023-04-30T16:29:07.241Z,101772.66
2023-04-30T16:31:34.411Z,101772.06
2023-04-30T16:34:01.653Z,101769.22
2023-04-30T16:36:28.910Z,101767.34
2023-04-30T16:38:56.475Z,101765.19
2023-04-30T16:41:23.677Z,101762.97
2023-04-30T16:43:51.012Z,101765.59
2023-04-30T16:46:18.041Z,101759.75
2023-04-30T16:48:45.236Z,101764.19
2023-04-30T16:51:14.056Z,101763.19
2023-04-30T16:53:41.175Z,101759.50
2023-04-30T16:56:08.260Z,101762.63
2023-04-30T16:58:35.604Z,101757.00
2023-04-30T17:01:02.789Z,101756.94
2023-04-30T17:03:30.824Z,101751.41
2023-04-30T17:05:58.029Z,101753.22
2023-04-30T17:08:25.374Z,101747.31
2023-04-30T17:10:52.837Z,101751.63
2023-04-30T17:13:20.325Z,101754.03
2023-04-30T17:15:48.053Z,101746.53
2023-04-30T17:18:15.355Z,101733.47
2023-04-30T17:20:42.481Z,101732.66
2023-04-30T17:23:09.512Z,101726.16
2023-04-30T17:25:37.104Z,101722.31
2023-04-30T17:28:04.381Z,101720.97
2023-04-30T17:30:31.349Z,101716.22
2023-04-30T17:33:00.421Z,101713.22
2023-04-30T17:35:27.795Z,101729.31
2023-04-30T17:37:54.942Z,101720.09
2023-04-30T17:40:22.228Z,101708.31
2023-04-30T17:42:51.558Z,101723.63
2023-04-30T17:45:19.116Z,101715.69
2023-04-30T17:47:46.708Z,101718.44
2023-04-30T17:50:13.875Z,101712.88
2023-04-30T17:52:41.504Z,101703.88
2023-04-30T17:55:09.592Z,101705.31
2023-04-30T17:57:37.349Z,101703.94
2023-04-30T18:00:05.436Z,101709.72
2023-04-30T18:02:33.081Z,101701.25
2023-04-30T18:05:00.216Z,101701.63
2023-04-30T18:07:27.378Z,101703.75
2023-04-30T18:09:54.813Z,101695.22
2023-04-30T18:12:22.463Z,101692.78
2023-04-30T18:14:49.483Z,101694.81
2023-04-30T18:17:16.642Z,101690.66
2023-04-30T18:19:44.704Z,101692.78
2023-04-30T18:22:12.434Z,101690.44
2023-04-30T18:24:39.679Z,101689.88
2023-04-30T18:27:07.864Z,101697.41
2023-04-30T18:29:35.542Z,101695.19
2023-04-30T18:32:02.873Z,101692.81
2023-04-30T18:34:29.984Z,101693.94
2023-04-30T18:36:57.150Z,101686.28
2023-04-30T18:39:24.293Z,101675.88
2023-04-30T18:41:54.214Z,101677.00
2023-04-30T18:44:33.200Z,101676.44
2023-04-30T18:47:00.322Z,101675.78
2023-04-30T18:49:27.466Z,101680.44
2023-04-30T18:51:55.424Z,101676.25
2023-04-30T18:54:24.222Z,101672.94
2023-04-30T18:56:51.424Z,101674.91
2023-04-30T18:59:19.324Z,101678.56
2023-04-30T19:01:46.638Z,101674.34
2023-04-30T19:04:15.899Z,101681.59
2023-04-30T19:06:43.946Z,101673.81
2023-04-30T19:09:10.997Z,101679.22
2023-04-30T19:11:41.432Z,101681.16
2023-04-30T19:14:08.450Z,101681.28
2023-04-30T19:16:35.590Z,101684.06
2023-04-30T19:19:02.764Z,101680.63
2023-04-30T19:21:30.723Z,101680.72
2023-04-30T19:23:57.820Z,101687.91
2023-04-30T19:26:25.989Z,101686.19
2023-04-30T19:28:52.986Z,101688.91
2023-04-30T19:31:20.268Z,101680.19
2023-04-30T19:33:47.321Z,101686.44
2023-04-30T19:36:14.428Z,101679.47
2023-04-30T19:38:41.469Z,101680.41
2023-04-30T19:41:08.576Z,101691.09
2023-04-30T19:43:35.598Z,101679.63
2023-04-30T19:46:02.876Z,101696.50
2023-04-30T19:48:31.425Z,101683.31
2023-04-30T19:50:58.595Z,101684.22
2023-04-30T19:53:25.827Z,101683.41
2023-04-30T19:55:53.193Z,101683.47
2023-04-30T19:58:20.470Z,101687.94
2023-04-30T20:00:47.609Z,101680.91
2023-04-30T20:03:16.848Z,101675.69
2023-04-30T20:05:45.087Z,101676.59
2023-04-30T20:08:12.474Z,101684.59
2023-04-30T20:10:41.015Z,101680.25
2023-04-30T20:13:09.238Z,101674.09
2023-04-30T20:15:36.432Z,101669.72
2023-04-30T20:18:05.747Z,101681.25
2023-04-30T20:20:32.861Z,101678.63
2023-04-30T20:23:14.111Z,101670.69
2023-04-30T20:25:45.623Z,101675.16
2023-04-30T20:28:18.252Z,101667.25
2023-04-30T20:30:46.603Z,101673.47
2023-04-30T20:33:14.747Z,101668.19
2023-04-30T20:35:45.547Z,101668.22
2023-04-30T20:38:14.555Z,101665.59
2023-04-30T20:40:41.690Z,101665.59
2023-04-30T20:43:10.329Z,101659.47
2023-04-30T20:45:37.764Z,101661.22
2023-04-30T20:48:06.589Z,101656.84
2023-04-30T20:50:33.744Z,101652.44
2023-04-30T20:53:00.821Z,101655.09
2023-04-30T20:55:27.849Z,101654.25
2023-04-30T20:57:54.873Z,101657.78
2023-04-30T21:00:21.934Z,101656.91
2023-04-30T21:02:49.156Z,101650.75
2023-04-30T21:05:16.489Z,101650.75
2023-04-30T21:07:43.546Z,101650.72
2023-04-30T21:10:11.147Z,101643.66
2023-04-30T21:12:38.207Z,101642.78
2023-04-30T21:15:05.976Z,101641.94
2023-04-30T21:17:33.023Z,101640.16
2023-04-30T21:20:00.912Z,101645.50
2023-04-30T21:22:28.833Z,101637.50
2023-04-30T21:24:57.009Z,101633.97
2023-04-30T21:27:24.032Z,101628.69
2023-04-30T21:29:51.071Z,101630.47
2023-04-30T21:32:18.116Z,101634.88
2023-04-30T21:34:45.328Z,101635.75
2023-04-30T21:37:13.365Z,101626.06
2023-04-30T21:39:41.145Z,101624.28
2023-04-30T21:42:08.200Z,101627.81
2023-04-30T21:44:36.148Z,101625.19
2023-04-30T21:47:03.762Z,101622.53
2023-04-30T21:49:31.314Z,101615.50
2023-04-30T21:51:58.401Z,101617.25
2023-04-30T21:54:25.452Z,101619.91
2023-04-30T21:56:52.500Z,101613.72
2023-04-30T21:59:19.484Z,101612.84
2023-04-30T22:01:46.667Z,101604.91
2023-04-30T22:04:15.395Z,101609.31
2023-04-30T22:06:42.618Z,101604.91
2023-04-30T22:09:10.493Z,101601.38
2023-04-30T22:11:37.607Z,101596.97
2023-04-30T22:14:04.533Z,101596.97
2023-04-30T22:16:32.987Z,101597.88
2023-04-30T22:19:00.267Z,101592.59
2023-04-30T22:21:27.224Z,101586.41
2023-04-30T22:23:54.483Z,101583.75
2023-04-30T22:26:23.135Z,101585.53
2023-04-30T22:28:51.174Z,101576.72
2023-04-30T22:31:18.710Z,101574.94
2023-04-30T22:33:46.036Z,101578.50
2023-04-30T22:36:13.151Z,101577.59
2023-04-30T22:38:40.201Z,101577.63
2023-04-30T22:41:07.312Z,101574.13
2023-04-30T22:43:34.446Z,101575.00
2023-04-30T22:46:02.188Z,101574.13
2023-04-30T22:48:30.091Z,101575.91
2023-04-30T22:50:58.654Z,101570.59
2023-04-30T22:53:25.757Z,101575.00
2023-04-30T22:55:54.115Z,101568.84
2023-04-30T22:58:21.181Z,101571.50
2023-04-30T23:00:48.340Z,101568.84
2023-04-30T23:03:15.515Z,101567.09
2023-04-30T23:05:42.643Z,101565.34
2023-04-30T23:08:09.653Z,101558.28
2023-04-30T23:10:36.649Z,101562.69
2023-04-30T23:13:03.675Z,101558.28
2023-04-30T23:15:30.691Z,101555.66
2023-04-30T23:18:00.110Z,101559.19
2023-04-30T23:20:27.337Z,101560.09
2023-04-30T23:22:54.350Z,101561.84
2023-04-30T23:25:21.390Z,101553.94
2023-04-30T23:27:48.378Z,101560.13
2023-04-30T23:30:15.774Z,101546.00
2023-04-30T23:32:42.879Z,101546.00
2023-04-30T23:35:10.168Z,101546.00
2023-04-30T23:37:37.215Z,101545.13
2023-04-30T23:40:08.914Z,101543.38
2023-04-30T23:42:35.986Z,101537.22
2023-04-30T23:45:03.748Z,101535.44
2023-04-30T23:47:30.828Z,101530.16
2023-04-30T23:49:58.225Z,101531.06
2023-04-30T23:52:25.461Z,101524.91
2023-04-30T23:54:52.547Z,101524.00
2023-04-30T23:57:19.753Z,101520.47
2023-04-30T23:59:47.251Z,101507.25
